createdAt,value
2018-12-14T00:02:08.363Z,19.20
2018-12-14T00:05:12.384Z,17.87
2018-12-14T00:08:16.409Z,20.10
2018-12-14T00:11:20.411Z,17.73
2018-12-14T00:14:24.435Z,17.73
2018-12-14T00:17:28.642Z,18.70
2018-12-14T00:20:32.758Z,17.30
2018-12-14T00:23:36.791Z,15.93
2018-12-14T00:26:40.807Z,18.97
2018-12-14T00:29:45.114Z,18.43
2018-12-14T00:32:49.142Z,17.90
2018-12-14T00:35:53.267Z,17.97
2018-12-14T00:38:57.371Z,19.13
2018-12-14T00:42:01.386Z,17.57
2018-12-14T00:45:05.486Z,18.60
2018-12-14T00:48:09.507Z,17.57
2018-12-14T00:51:13.519Z,17.47
2018-12-14T00:54:17.537Z,17.20
2018-12-14T00:57:21.563Z,18.80
2018-12-14T01:00:25.581Z,18.10
2018-12-14T01:03:29.698Z,14.83
2018-12-14T01:06:33.992Z,19.73
2018-12-14T01:09:38.082Z,16.47
2018-12-14T01:12:42.096Z,17.37
2018-12-14T01:15:46.226Z,18.00
2018-12-14T01:18:50.267Z,18.60
2018-12-14T01:21:54.291Z,17.80
2018-12-14T01:24:58.319Z,16.47
2018-12-14T01:28:02.327Z,15.23
2018-12-14T01:31:06.369Z,19.00
2018-12-14T01:34:10.903Z,18.00
2018-12-14T01:37:14.915Z,16.60
2018-12-14T01:40:18.941Z,16.50
2018-12-14T01:43:22.943Z,15.93
2018-12-14T01:46:27.055Z,17.60
2018-12-14T01:49:31.078Z,15.43
2018-12-14T01:52:35.381Z,14.70
2018-12-14T01:55:39.407Z,16.37
2018-12-14T01:58:43.438Z,15.73
2018-12-14T02:01:47.577Z,16.67
2018-12-14T02:04:51.615Z,17.83
2018-12-14T02:07:55.720Z,15.83
2018-12-14T02:10:59.822Z,14.17
2018-12-14T02:14:04.050Z,15.73
2018-12-14T02:17:08.053Z,16.80
2018-12-14T02:20:12.179Z,17.00
2018-12-14T02:23:16.214Z,18.10
2018-12-14T02:26:20.242Z,16.70
2018-12-14T02:29:24.271Z,15.70
2018-12-14T02:32:28.300Z,15.80
2018-12-14T02:35:32.316Z,16.42
2018-12-14T02:38:36.350Z,16.30
2018-12-14T02:41:40.475Z,17.57
2018-12-14T02:44:44.480Z,16.77
2018-12-14T02:47:48.688Z,17.10
2018-12-14T02:50:52.699Z,16.10
2018-12-14T02:53:56.718Z,15.90
2018-12-14T02:57:00.748Z,15.10
2018-12-14T03:00:05.763Z,16.37
2018-12-14T03:03:09.852Z,15.67
2018-12-14T03:06:13.874Z,17.00
2018-12-14T03:09:18.007Z,15.27
2018-12-14T03:12:26.615Z,17.93
2018-12-14T03:15:28.033Z,17.93
2018-12-14T03:18:32.058Z,17.10
2018-12-14T03:21:36.091Z,16.83
2018-12-14T03:24:40.200Z,16.93
2018-12-14T03:27:44.245Z,16.27
2018-12-14T03:30:48.263Z,15.40
2018-12-14T03:33:52.378Z,16.48
2018-12-14T03:36:56.379Z,15.87
2018-12-14T03:40:00.408Z,15.80
2018-12-14T03:43:04.423Z,16.10
2018-12-14T03:46:08.435Z,15.93
2018-12-14T03:49:12.464Z,16.97
2018-12-14T03:52:16.480Z,16.90
2018-12-14T03:55:20.518Z,15.33
2018-12-14T03:58:24.543Z,16.17
2018-12-14T04:01:28.621Z,16.40
2018-12-14T04:04:32.639Z,15.63
2018-12-14T04:07:36.655Z,17.43
2018-12-14T04:10:40.683Z,16.20
2018-12-14T04:13:44.699Z,15.90
2018-12-14T04:16:48.739Z,15.20
2018-12-14T04:19:52.960Z,15.77
2018-12-14T04:22:56.969Z,15.95
2018-12-14T04:26:01.003Z,15.10
2018-12-14T04:29:05.465Z,17.10
2018-12-14T04:32:09.485Z,16.60
2018-12-14T04:35:13.611Z,16.37
2018-12-14T04:38:17.707Z,15.87
2018-12-14T04:41:21.821Z,16.60
2018-12-14T04:44:25.874Z,14.75
2018-12-14T04:47:29.965Z,14.90
2018-12-14T04:50:34.001Z,15.95
2018-12-14T04:53:38.019Z,17.05
2018-12-14T04:56:42.139Z,18.90
2018-12-14T04:59:46.131Z,16.30
2018-12-14T05:02:50.179Z,17.15
2018-12-14T05:05:54.202Z,16.07
2018-12-14T05:08:58.226Z,15.83
2018-12-14T05:12:02.280Z,16.70
2018-12-14T05:15:07.497Z,16.17
2018-12-14T05:18:11.519Z,17.10
2018-12-14T05:21:15.558Z,15.70
2018-12-14T05:24:19.568Z,16.55
2018-12-14T05:27:23.691Z,15.97
2018-12-14T05:30:27.798Z,16.77
2018-12-14T05:33:31.826Z,17.17
2018-12-14T05:36:35.953Z,16.87
2018-12-14T05:39:40.535Z,17.00
2018-12-14T05:42:51.263Z,17.42
2018-12-14T05:45:55.383Z,17.00
2018-12-14T05:48:59.819Z,16.75
2018-12-14T05:52:03.939Z,16.87
2018-12-14T05:55:08.141Z,16.30
2018-12-14T05:58:12.257Z,15.77
2018-12-14T06:01:16.242Z,16.25
2018-12-14T06:04:20.264Z,16.73
2018-12-14T06:07:24.291Z,17.42
2018-12-14T06:10:28.435Z,16.25
2018-12-14T06:13:32.470Z,16.33
2018-12-14T06:16:36.514Z,16.67
2018-12-14T06:19:41.555Z,16.53
2018-12-14T06:22:45.571Z,18.35
2018-12-14T06:25:49.611Z,14.35
2018-12-14T06:28:53.707Z,16.48
2018-12-14T06:31:57.727Z,18.27
2018-12-14T06:35:02.126Z,15.30
2018-12-14T06:38:06.432Z,16.93
2018-12-14T06:41:10.895Z,16.17
2018-12-14T06:44:14.991Z,17.02
2018-12-14T06:47:19.613Z,17.52
2018-12-14T06:50:25.509Z,18.75
2018-12-14T06:53:29.551Z,16.12
2018-12-14T06:56:33.670Z,15.58
2018-12-14T06:59:37.711Z,17.25
2018-12-14T07:02:41.930Z,17.67
2018-12-14T07:05:45.972Z,16.62
2018-12-14T07:08:49.982Z,17.75
2018-12-14T07:11:54.004Z,16.17
2018-12-14T07:14:58.022Z,16.48
2018-12-14T07:18:02.110Z,16.70
2018-12-14T07:21:06.147Z,17.55
2018-12-14T07:24:10.254Z,17.95
2018-12-14T07:27:14.292Z,17.80
2018-12-14T07:30:18.362Z,17.20
2018-12-14T07:33:22.467Z,16.82
2018-12-14T07:36:26.601Z,18.85
2018-12-14T07:39:30.610Z,16.30
2018-12-14T07:42:36.204Z,17.85
2018-12-14T07:45:41.078Z,17.52
2018-12-14T07:48:45.200Z,16.57
2018-12-14T07:51:49.290Z,15.90
2018-12-14T07:54:53.266Z,17.25
2018-12-14T07:57:57.293Z,19.00
2018-12-14T08:01:01.320Z,16.80
2018-12-14T08:04:05.411Z,16.35
2018-12-14T08:07:09.603Z,16.07
2018-12-14T08:10:13.610Z,18.55
2018-12-14T08:13:17.822Z,18.42
2018-12-14T08:16:21.853Z,19.15
2018-12-14T08:19:25.860Z,19.67
2018-12-14T08:22:29.887Z,16.05
2018-12-14T08:25:33.989Z,17.02
2018-12-14T08:28:38.015Z,16.60
2018-12-14T08:31:42.036Z,16.42
2018-12-14T08:34:50.968Z,17.87
2018-12-14T08:37:52.064Z,17.32
2018-12-14T08:40:56.158Z,18.12
2018-12-14T08:44:00.186Z,17.48
2018-12-14T08:47:04.302Z,17.70
2018-12-14T08:50:08.750Z,18.17
2018-12-14T08:53:12.856Z,17.50
2018-12-14T08:56:16.938Z,16.95
2018-12-14T08:59:20.942Z,18.57
2018-12-14T09:02:24.996Z,20.08
2018-12-14T09:05:29.003Z,16.23
2018-12-14T09:08:33.023Z,16.62
2018-12-14T09:11:37.119Z,17.27
2018-12-14T09:14:41.137Z,16.87
2018-12-14T09:17:45.156Z,15.48
2018-12-14T09:20:49.176Z,17.15
2018-12-14T09:23:53.182Z,16.17
2018-12-14T09:26:57.191Z,17.77
2018-12-14T09:30:01.210Z,17.85
2018-12-14T09:33:05.310Z,19.07
2018-12-14T09:36:09.327Z,18.70
2018-12-14T09:39:13.371Z,17.50
2018-12-14T09:42:17.392Z,16.70
2018-12-14T09:45:21.414Z,16.83
2018-12-14T09:48:25.426Z,17.90
2018-12-14T09:51:29.460Z,17.80
2018-12-14T09:54:33.504Z,16.67
2018-12-14T09:57:37.522Z,17.00
2018-12-14T10:00:41.558Z,15.80
2018-12-14T10:03:45.973Z,17.70
2018-12-14T10:06:49.994Z,16.17
2018-12-14T10:09:54.034Z,16.63
2018-12-14T10:12:58.060Z,21.23
2018-12-14T10:16:02.389Z,21.70
2018-12-14T10:19:06.489Z,20.03
2018-12-14T10:22:10.506Z,21.37
2018-12-14T10:25:14.527Z,15.30
2018-12-14T10:28:18.609Z,17.43
2018-12-14T10:31:22.734Z,18.10
2018-12-14T10:34:26.761Z,16.67
2018-12-14T10:37:30.802Z,16.63
2018-12-14T10:40:34.963Z,18.70
2018-12-14T10:43:38.979Z,16.83
2018-12-14T10:46:43.000Z,18.60
2018-12-14T10:49:47.022Z,17.30
2018-12-14T10:52:51.152Z,17.40
2018-12-14T10:55:55.163Z,15.73
2018-12-14T10:58:59.199Z,19.43
2018-12-14T11:02:03.306Z,16.70
2018-12-14T11:05:07.406Z,19.60
2018-12-14T11:08:11.435Z,19.70
2018-12-14T11:11:15.450Z,16.07
2018-12-14T11:14:19.643Z,15.97
2018-12-14T11:17:23.676Z,17.77
2018-12-14T11:20:27.692Z,16.03
2018-12-14T11:23:31.719Z,16.43
2018-12-14T11:26:35.746Z,15.83
2018-12-14T11:29:39.862Z,16.77
2018-12-14T11:32:43.895Z,16.30
2018-12-14T11:35:47.931Z,15.53
2018-12-14T11:38:52.036Z,16.03
2018-12-14T11:41:56.144Z,17.43
2018-12-14T11:45:00.158Z,16.20
2018-12-14T11:48:04.177Z,14.80
2018-12-14T11:51:09.592Z,16.00
2018-12-14T11:54:13.615Z,15.73
2018-12-14T11:57:17.643Z,18.50
2018-12-14T12:00:21.780Z,16.80
2018-12-14T12:03:25.795Z,14.20
2018-12-14T12:06:29.815Z,15.80
2018-12-14T12:09:33.858Z,14.90
2018-12-14T12:12:38.411Z,14.70
2018-12-14T12:15:42.435Z,16.30
2018-12-14T12:18:46.469Z,18.33
2018-12-14T12:21:50.600Z,16.10
2018-12-14T12:24:54.610Z,16.70
2018-12-14T12:27:58.644Z,16.33
2018-12-14T12:31:02.658Z,15.80
2018-12-14T12:34:06.679Z,15.20
2018-12-14T12:37:10.692Z,16.03
2018-12-14T12:40:14.714Z,18.03
2018-12-14T12:43:18.749Z,15.80
2018-12-14T12:46:22.788Z,19.43
2018-12-14T12:49:26.808Z,19.77
2018-12-14T12:52:30.874Z,16.30
2018-12-14T12:55:34.946Z,18.97
2018-12-14T12:58:38.969Z,15.37
2018-12-14T13:01:43.060Z,16.50
2018-12-14T13:04:47.381Z,15.63
2018-12-14T13:07:51.397Z,17.07
2018-12-14T13:10:55.490Z,16.50
2018-12-14T13:13:59.599Z,17.60
2018-12-14T13:17:03.630Z,15.50
2018-12-14T13:20:07.736Z,15.23
2018-12-14T13:23:12.586Z,15.93
2018-12-14T13:26:16.679Z,14.67
2018-12-14T13:29:20.773Z,16.07
2018-12-14T13:32:24.855Z,15.33
2018-12-14T13:35:29.090Z,15.70
2018-12-14T13:38:33.126Z,16.93
2018-12-14T13:41:37.314Z,19.77
2018-12-14T13:44:46.529Z,22.13
2018-12-14T13:47:47.684Z,15.80
2018-12-14T13:50:51.702Z,15.60
2018-12-14T13:53:55.728Z,17.13
2018-12-14T13:56:59.752Z,14.77
2018-12-14T14:00:04.256Z,15.47
2018-12-14T14:03:08.371Z,16.97
2018-12-14T14:06:12.402Z,15.97
2018-12-14T14:09:16.443Z,17.03
2018-12-14T14:12:20.479Z,15.80
2018-12-14T14:15:24.491Z,20.90
2018-12-14T14:18:28.503Z,18.57
2018-12-14T14:21:32.576Z,16.63
2018-12-14T14:24:36.598Z,16.40
2018-12-14T14:27:40.629Z,18.63
2018-12-14T14:30:44.659Z,15.80
2018-12-14T14:33:48.682Z,15.53
2018-12-14T14:36:52.726Z,15.30
2018-12-14T14:39:56.756Z,14.10
2018-12-14T14:43:00.802Z,18.85
2018-12-14T14:46:04.832Z,15.50
2018-12-14T14:49:08.927Z,16.57
2018-12-14T14:52:12.971Z,16.53
2018-12-14T14:55:17.087Z,13.57
2018-12-14T14:58:21.126Z,14.80
2018-12-14T15:01:25.207Z,15.50
2018-12-14T15:04:29.223Z,15.07
2018-12-14T15:07:33.245Z,15.10
2018-12-14T15:10:37.257Z,14.10
2018-12-14T15:13:41.279Z,16.93
2018-12-14T15:16:45.303Z,16.13
2018-12-14T15:19:49.338Z,16.13
2018-12-14T15:22:53.367Z,18.90
2018-12-14T15:25:57.416Z,17.13
2018-12-14T15:29:01.513Z,17.10
2018-12-14T15:32:05.831Z,15.23
2018-12-14T15:35:09.868Z,14.33
2018-12-14T15:38:13.987Z,16.03
2018-12-14T15:41:18.099Z,15.10
2018-12-14T15:44:22.132Z,16.63
2018-12-14T15:47:26.171Z,15.40
2018-12-14T15:50:30.248Z,14.87
2018-12-14T15:53:34.267Z,14.83
2018-12-14T15:56:38.322Z,15.30
2018-12-14T15:59:42.361Z,15.13
2018-12-14T16:02:46.519Z,14.57
2018-12-14T16:05:50.631Z,16.40
2018-12-14T16:08:54.650Z,14.70
2018-12-14T16:11:59.175Z,14.13
2018-12-14T16:15:03.527Z,15.63
2018-12-14T16:18:07.594Z,13.40
2018-12-14T16:21:11.648Z,14.17
2018-12-14T16:24:15.675Z,14.57
2018-12-14T16:27:19.800Z,14.60
2018-12-14T16:30:23.898Z,13.50
2018-12-14T16:33:27.989Z,12.07
2018-12-14T16:36:32.177Z,11.80
2018-12-14T16:39:36.491Z,13.43
2018-12-14T16:42:40.799Z,12.70
2018-12-14T16:45:45.490Z,13.40
2018-12-14T16:48:49.500Z,11.03
2018-12-14T16:51:53.583Z,12.50
2018-12-14T16:54:57.638Z,13.80
2018-12-14T16:58:01.644Z,12.43
2018-12-14T17:01:05.763Z,12.87
2018-12-14T17:04:09.800Z,11.10
2018-12-14T17:07:13.926Z,10.77
2018-12-14T17:10:18.026Z,12.77
2018-12-14T17:13:22.059Z,13.40
2018-12-14T17:16:26.078Z,13.00
2018-12-14T17:19:30.126Z,11.87
2018-12-14T17:22:34.172Z,12.80
2018-12-14T17:25:38.184Z,11.70
2018-12-14T17:28:42.207Z,12.60
2018-12-14T17:31:46.324Z,11.40
2018-12-14T17:34:50.351Z,11.93
2018-12-14T17:37:54.391Z,12.47
2018-12-14T17:40:58.400Z,10.93
2018-12-14T17:44:02.522Z,11.17
2018-12-14T17:47:06.646Z,10.80
2018-12-14T17:50:10.768Z,11.50
2018-12-14T17:53:14.860Z,12.13
2018-12-14T17:56:18.882Z,11.93
2018-12-14T17:59:22.912Z,10.03
2018-12-14T18:02:27.183Z,13.50
2018-12-14T18:05:31.203Z,11.70
2018-12-14T18:08:35.278Z,12.00
2018-12-14T18:11:39.320Z,11.60
2018-12-14T18:14:43.359Z,13.03
2018-12-14T18:17:47.387Z,15.00
2018-12-14T18:20:51.515Z,13.03
2018-12-14T18:23:55.626Z,13.63
2018-12-14T18:26:59.665Z,14.10
2018-12-14T18:30:04.535Z,12.13
2018-12-14T18:33:08.658Z,12.50
2018-12-14T18:36:12.703Z,10.80
2018-12-14T18:39:16.912Z,12.40
2018-12-14T18:42:20.902Z,12.63
2018-12-14T18:45:24.942Z,11.87
2018-12-14T18:48:29.059Z,11.60
2018-12-14T18:51:33.210Z,11.53
2018-12-14T18:54:37.233Z,12.57
2018-12-14T18:57:41.287Z,13.23
2018-12-14T19:00:45.307Z,13.13
2018-12-14T19:03:49.338Z,12.83
2018-12-14T19:06:53.947Z,13.57
2018-12-14T19:09:58.055Z,11.67
2018-12-14T19:13:02.091Z,13.60
2018-12-14T19:16:06.250Z,14.53
2018-12-14T19:19:10.510Z,18.33
2018-12-14T19:22:14.541Z,12.50
2018-12-14T19:25:18.549Z,20.83
2018-12-14T19:28:22.576Z,23.37
2018-12-14T19:31:26.601Z,13.10
2018-12-14T19:34:31.606Z,14.23
2018-12-14T19:37:35.831Z,12.63
2018-12-14T19:40:39.849Z,14.50
2018-12-14T19:43:43.879Z,13.87
2018-12-14T19:46:47.921Z,14.20
2018-12-14T19:49:52.156Z,14.50
2018-12-14T19:52:56.183Z,15.17
2018-12-14T19:56:00.200Z,12.93
2018-12-14T19:59:04.332Z,13.77
2018-12-14T20:02:08.346Z,16.50
2018-12-14T20:05:12.459Z,18.20
2018-12-14T20:08:16.507Z,15.47
2018-12-14T20:11:20.519Z,19.33
2018-12-14T20:14:24.546Z,14.27
2018-12-14T20:17:28.567Z,14.50
2018-12-14T20:20:32.703Z,17.23
2018-12-14T20:23:36.755Z,14.00
2018-12-14T20:26:40.794Z,13.50
2018-12-14T20:29:44.811Z,14.43
2018-12-14T20:32:49.507Z,15.57
2018-12-14T20:35:53.564Z,18.83
2018-12-14T20:38:57.643Z,14.87
2018-12-14T20:42:01.763Z,16.83
2018-12-14T20:45:06.809Z,14.50
2018-12-14T20:48:10.888Z,13.27
2018-12-14T20:51:15.007Z,14.70
2018-12-14T20:54:19.031Z,14.70
2018-12-14T20:57:23.161Z,15.10
2018-12-14T21:00:27.200Z,14.83
2018-12-14T21:03:31.318Z,14.67
2018-12-14T21:06:35.519Z,16.45
2018-12-14T21:09:39.636Z,14.40
2018-12-14T21:12:43.711Z,13.83
2018-12-14T21:15:47.759Z,14.20
2018-12-14T21:18:51.783Z,15.33
2018-12-14T21:21:55.890Z,14.07
2018-12-14T21:25:00.019Z,13.53
2018-12-14T21:28:04.143Z,12.60
2018-12-14T21:31:08.174Z,12.50
2018-12-14T21:34:12.203Z,13.57
2018-12-14T21:37:16.257Z,14.60
2018-12-14T21:40:20.343Z,14.27
2018-12-14T21:43:24.395Z,13.50
2018-12-14T21:46:32.622Z,12.07
2018-12-14T21:49:34.630Z,12.87
2018-12-14T21:52:38.765Z,13.40
2018-12-14T21:55:42.939Z,14.23
2018-12-14T21:58:47.027Z,13.63
2018-12-14T22:01:51.055Z,13.50
2018-12-14T22:04:55.115Z,13.17
2018-12-14T22:07:59.146Z,13.70
2018-12-14T22:11:03.283Z,14.90
2018-12-14T22:14:07.328Z,14.17
2018-12-14T22:17:11.406Z,12.03
2018-12-14T22:20:15.523Z,12.37
2018-12-14T22:23:19.615Z,11.83
2018-12-14T22:26:23.859Z,12.27
2018-12-14T22:29:27.906Z,12.73
2018-12-14T22:32:31.930Z,12.37
2018-12-14T22:35:36.046Z,14.20
2018-12-14T22:38:40.073Z,11.87
2018-12-14T22:41:44.128Z,13.20
2018-12-14T22:44:48.171Z,12.03
2018-12-14T22:47:52.319Z,11.80
2018-12-14T22:50:56.365Z,11.47
2018-12-14T22:54:00.410Z,11.10
2018-12-14T22:57:04.442Z,12.33
2018-12-14T23:00:12.103Z,12.27
2018-12-14T23:03:16.134Z,11.70
2018-12-14T23:06:20.472Z,12.63
2018-12-14T23:09:24.548Z,12.60
2018-12-14T23:12:28.595Z,12.63
2018-12-14T23:15:32.633Z,12.97
2018-12-14T23:18:36.663Z,14.50
2018-12-14T23:21:40.731Z,14.87
2018-12-14T23:24:44.748Z,14.87
2018-12-14T23:27:48.786Z,14.50
2018-12-14T23:30:52.808Z,13.43
2018-12-14T23:33:56.845Z,13.50
2018-12-14T23:37:00.880Z,13.70
2018-12-14T23:40:05.157Z,13.90
2018-12-14T23:43:09.203Z,12.83
2018-12-14T23:46:13.226Z,13.33
2018-12-14T23:49:17.278Z,13.83
2018-12-14T23:52:21.390Z,13.63
2018-12-14T23:55:25.658Z,14.17
2018-12-14T23:58:29.703Z,13.10
